createdAt,value
2023-04-16T00:02:25.097Z,81.08
2023-04-16T00:04:52.080Z,81.20
2023-04-16T00:07:18.906Z,80.91
2023-04-16T00:09:46.668Z,80.92
2023-04-16T00:12:13.755Z,80.95
2023-04-16T00:14:40.606Z,81.07
2023-04-16T00:17:07.452Z,80.81
2023-04-16T00:19:34.213Z,80.93
2023-04-16T00:22:00.977Z,81.17
2023-04-16T00:24:27.945Z,81.28
2023-04-16T00:26:54.688Z,81.53
2023-04-16T00:29:22.161Z,81.36
2023-04-16T00:31:48.931Z,81.65
2023-04-16T00:34:16.600Z,81.32
2023-04-16T00:36:43.449Z,81.33
2023-04-16T00:39:10.448Z,81.31
2023-04-16T00:41:38.268Z,81.64
2023-04-16T00:44:05.087Z,81.50
2023-04-16T00:46:32.119Z,81.44
2023-04-16T00:49:00.857Z,81.39
2023-04-16T00:51:27.704Z,81.45
2023-04-16T00:53:54.763Z,81.35
2023-04-16T00:56:24.324Z,81.51
2023-04-16T00:58:51.305Z,81.31
2023-04-16T01:01:18.173Z,81.33
2023-04-16T01:03:48.140Z,81.51
2023-04-16T01:06:17.567Z,81.48
2023-04-16T01:08:45.139Z,81.59
2023-04-16T01:11:12.414Z,81.28
2023-04-16T01:13:39.894Z,81.63
2023-04-16T01:16:08.586Z,81.45
2023-04-16T01:18:36.834Z,81.42
2023-04-16T01:21:04.304Z,81.43
2023-04-16T01:23:31.458Z,81.59
2023-04-16T01:25:58.282Z,81.31
2023-04-16T01:28:25.092Z,81.54
2023-04-16T01:30:51.933Z,81.50
2023-04-16T01:33:19.249Z,81.52
2023-04-16T01:35:46.254Z,81.67
2023-04-16T01:38:12.975Z,81.96
2023-04-16T01:40:39.724Z,82.18
2023-04-16T01:43:06.456Z,81.66
2023-04-16T01:45:34.599Z,82.05
2023-04-16T01:48:01.603Z,82.19
2023-04-16T01:50:29.793Z,82.05
2023-04-16T01:52:56.654Z,82.15
2023-04-16T01:55:23.567Z,82.37
2023-04-16T01:57:55.714Z,82.36
2023-04-16T02:00:26.487Z,82.23
2023-04-16T02:02:53.731Z,82.10
2023-04-16T02:05:20.601Z,82.19
2023-04-16T02:07:47.328Z,82.26
2023-04-16T02:10:14.184Z,82.30
2023-04-16T02:12:40.847Z,82.60
2023-04-16T02:15:08.115Z,82.65
2023-04-16T02:21:06.744Z,82.53
2023-04-16T02:23:33.684Z,82.81
2023-04-16T02:26:01.397Z,82.67
2023-04-16T02:28:28.268Z,82.70
2023-04-16T02:30:54.979Z,83.05
2023-04-16T02:33:21.705Z,82.93
2023-04-16T02:35:48.964Z,82.91
2023-04-16T02:38:15.667Z,82.79
2023-04-16T02:40:42.363Z,82.77
2023-04-16T02:43:09.168Z,82.45
2023-04-16T02:45:35.812Z,82.71
2023-04-16T02:48:02.784Z,82.81
2023-04-16T02:50:29.619Z,82.71
2023-04-16T02:52:56.345Z,83.18
2023-04-16T02:55:23.082Z,82.96
2023-04-16T02:57:49.990Z,83.28
2023-04-16T03:00:16.888Z,83.38
2023-04-16T03:02:43.729Z,83.22
2023-04-16T03:05:12.141Z,83.34
2023-04-16T03:07:40.833Z,83.35
2023-04-16T03:10:08.258Z,83.27
2023-04-16T03:12:35.801Z,83.18
2023-04-16T03:15:02.661Z,83.35
2023-04-16T03:17:29.589Z,83.22
2023-04-16T03:19:56.450Z,83.40
2023-04-16T03:22:23.620Z,83.47
2023-04-16T03:24:50.486Z,83.98
2023-04-16T03:27:17.349Z,84.34
2023-04-16T03:29:44.063Z,84.49
2023-04-16T03:32:12.721Z,84.89
2023-04-16T03:34:39.667Z,85.12
2023-04-16T03:37:06.450Z,85.16
2023-04-16T03:39:34.378Z,85.27
2023-04-16T03:42:02.418Z,85.14
2023-04-16T03:44:30.080Z,85.25
2023-04-16T03:46:56.939Z,85.36
2023-04-16T03:49:23.746Z,84.84
2023-04-16T03:51:50.513Z,84.81
2023-04-16T03:54:17.370Z,85.02
2023-04-16T03:56:44.295Z,85.06
2023-04-16T03:59:11.238Z,85.19
2023-04-16T04:01:38.099Z,85.55
2023-04-16T04:04:05.140Z,85.85
2023-04-16T04:06:32.714Z,86.08
2023-04-16T04:09:01.463Z,86.24
2023-04-16T04:11:28.175Z,86.33
2023-04-16T04:13:54.879Z,86.50
2023-04-16T04:16:56.824Z,86.31
2023-04-16T04:19:23.556Z,86.23
2023-04-16T04:21:50.260Z,86.45
2023-04-16T04:24:16.941Z,86.47
2023-04-16T04:26:43.638Z,86.37
2023-04-16T04:29:10.621Z,86.70
2023-04-16T04:31:37.478Z,86.59
2023-04-16T04:34:04.270Z,86.77
2023-04-16T04:36:31.352Z,86.58
2023-04-16T04:38:58.076Z,86.85
2023-04-16T04:41:24.800Z,87.01
2023-04-16T04:43:51.737Z,87.07
2023-04-16T04:46:18.530Z,87.05
2023-04-16T04:48:45.390Z,86.94
2023-04-16T04:51:12.208Z,86.72
2023-04-16T04:53:38.905Z,86.98
2023-04-16T04:56:12.248Z,87.05
2023-04-16T04:58:39.433Z,86.74
2023-04-16T05:01:06.369Z,86.70
2023-04-16T05:03:33.168Z,87.08
2023-04-16T05:06:00.094Z,87.18
2023-04-16T05:08:27.240Z,87.42
2023-04-16T05:10:54.173Z,87.41
2023-04-16T05:13:20.810Z,87.94
2023-04-16T05:15:47.445Z,88.14
2023-04-16T05:18:14.138Z,87.88
2023-04-16T05:20:40.989Z,88.33
2023-04-16T05:23:07.809Z,88.09
2023-04-16T05:25:34.635Z,88.23
2023-04-16T05:28:01.314Z,88.22
2023-04-16T05:30:27.978Z,87.85
2023-04-16T05:32:54.821Z,87.99
2023-04-16T05:35:21.634Z,88.03
2023-04-16T05:37:48.290Z,87.65
2023-04-16T05:40:15.097Z,87.67
2023-04-16T05:42:41.810Z,87.73
2023-04-16T05:45:09.110Z,87.56
2023-04-16T05:47:35.764Z,87.54
2023-04-16T05:50:02.483Z,87.25
2023-04-16T05:52:29.170Z,87.29
2023-04-16T05:54:56.086Z,86.99
2023-04-16T05:57:22.789Z,86.90
2023-04-16T05:59:49.514Z,86.80
2023-04-16T06:02:22.255Z,86.87
2023-04-16T06:04:50.140Z,86.87
2023-04-16T06:07:16.868Z,86.55
2023-04-16T06:09:45.380Z,86.55
2023-04-16T06:12:12.161Z,86.22
2023-04-16T06:14:38.890Z,86.43
2023-04-16T06:17:05.696Z,86.31
2023-04-16T06:19:32.706Z,86.26
2023-04-16T06:21:59.628Z,86.62
2023-04-16T06:24:26.320Z,86.32
2023-04-16T06:26:54.851Z,86.48
2023-04-16T06:29:27.916Z,86.53
2023-04-16T06:32:00.335Z,86.30
2023-04-16T06:34:28.896Z,86.41
2023-04-16T06:36:55.878Z,86.16
2023-04-16T06:39:22.550Z,86.27
2023-04-16T06:41:49.505Z,86.29
2023-04-16T06:44:16.468Z,86.48
2023-04-16T06:46:43.237Z,86.16
2023-04-16T06:49:11.400Z,86.16
2023-04-16T06:51:38.359Z,86.08
2023-04-16T06:54:05.050Z,86.31
2023-04-16T06:56:32.655Z,86.04
2023-04-16T06:59:01.087Z,86.36
2023-04-16T07:01:28.852Z,86.19
2023-04-16T07:03:55.815Z,85.83
2023-04-16T07:06:22.792Z,85.35
2023-04-16T07:08:49.513Z,85.18
2023-04-16T07:11:16.569Z,85.16
2023-04-16T07:13:43.383Z,85.00
2023-04-16T07:16:10.073Z,84.77
2023-04-16T07:18:36.795Z,84.49
2023-04-16T07:21:04.307Z,84.19
2023-04-16T07:23:31.617Z,84.32
2023-04-16T07:25:58.311Z,84.38
2023-04-16T07:28:26.086Z,84.43
2023-04-16T07:30:52.864Z,84.25
2023-04-16T07:33:19.655Z,84.00
2023-04-16T07:35:46.391Z,83.94
2023-04-16T07:38:14.916Z,83.74
2023-04-16T07:40:41.883Z,84.28
2023-04-16T07:43:09.018Z,84.43
2023-04-16T07:45:35.923Z,83.96
2023-04-16T07:48:02.806Z,83.28
2023-04-16T07:50:29.557Z,82.88
2023-04-16T07:52:56.307Z,82.49
2023-04-16T07:55:23.037Z,82.27
2023-04-16T07:57:49.845Z,82.20
2023-04-16T08:00:16.763Z,82.16
2023-04-16T08:02:44.598Z,81.58
2023-04-16T08:05:12.700Z,80.82
2023-04-16T08:07:39.716Z,80.38
2023-04-16T08:10:06.947Z,80.51
2023-04-16T08:12:33.829Z,80.87
2023-04-16T08:15:00.550Z,81.16
2023-04-16T08:17:28.872Z,80.50
2023-04-16T08:19:55.641Z,80.45
2023-04-16T08:22:22.810Z,80.33
2023-04-16T08:24:49.568Z,79.73
2023-04-16T08:27:19.689Z,79.90
2023-04-16T08:29:48.574Z,79.87
2023-04-16T08:32:16.357Z,79.54
2023-04-16T08:34:43.433Z,79.26
2023-04-16T08:37:14.279Z,78.81
2023-04-16T08:39:41.474Z,78.90
2023-04-16T08:42:17.463Z,78.71
2023-04-16T08:44:49.965Z,78.72
2023-04-16T08:47:23.250Z,78.15
2023-04-16T08:49:50.629Z,77.74
2023-04-16T08:52:22.615Z,77.55
2023-04-16T08:55:15.015Z,77.39
2023-04-16T08:57:53.967Z,77.08
2023-04-16T09:00:22.130Z,76.22
2023-04-16T09:02:50.576Z,76.07
2023-04-16T09:05:18.360Z,75.79
2023-04-16T09:07:48.012Z,75.63
2023-04-16T09:10:15.792Z,75.45
2023-04-16T09:12:43.253Z,75.33
2023-04-16T09:15:11.823Z,75.28
2023-04-16T09:17:39.715Z,74.84
2023-04-16T09:20:11.329Z,74.56
2023-04-16T09:22:40.548Z,74.50
2023-04-16T09:25:07.923Z,73.96
2023-04-16T09:27:34.583Z,72.88
2023-04-16T09:30:01.523Z,72.07
2023-04-16T09:32:29.296Z,71.75
2023-04-16T09:35:01.411Z,71.54
2023-04-16T09:37:32.612Z,70.68
2023-04-16T09:40:04.193Z,70.65
2023-04-16T09:42:37.468Z,69.44
2023-04-16T09:45:05.947Z,69.56
2023-04-16T09:47:43.329Z,69.73
2023-04-16T09:50:16.463Z,69.67
2023-04-16T09:52:48.230Z,67.79
2023-04-16T09:55:14.956Z,67.01
2023-04-16T09:57:41.669Z,66.78
2023-04-16T10:00:13.968Z,66.49
2023-04-16T10:02:43.183Z,65.92
2023-04-16T10:05:14.721Z,66.02
2023-04-16T10:07:42.106Z,64.46
2023-04-16T10:10:09.970Z,63.72
2023-04-16T10:12:37.417Z,63.05
2023-04-16T10:15:05.499Z,62.75
2023-04-16T10:17:33.826Z,60.79
2023-04-16T10:20:02.679Z,61.15
2023-04-16T10:22:30.296Z,60.65
2023-04-16T10:24:59.055Z,60.11
2023-04-16T10:27:28.542Z,59.01
2023-04-16T10:29:55.684Z,58.98
2023-04-16T10:32:23.549Z,58.74
2023-04-16T10:34:50.407Z,59.34
2023-04-16T10:37:18.793Z,59.78
2023-04-16T10:39:45.518Z,59.78
2023-04-16T10:42:13.204Z,58.84
2023-04-16T10:44:45.427Z,58.63
2023-04-16T10:47:14.158Z,59.42
2023-04-16T10:49:42.655Z,58.77
2023-04-16T10:52:17.469Z,58.59
2023-04-16T10:54:44.562Z,58.32
2023-04-16T10:57:19.867Z,57.42
2023-04-16T10:59:49.336Z,55.76
2023-04-16T11:02:19.854Z,53.67
2023-04-16T11:04:49.996Z,53.42
2023-04-16T11:07:21.870Z,54.12
2023-04-16T11:10:02.602Z,54.94
2023-04-16T11:12:29.416Z,55.96
2023-04-16T11:15:03.017Z,56.52
2023-04-16T11:17:36.629Z,56.59
2023-04-16T11:20:05.411Z,56.64
2023-04-16T11:22:48.324Z,56.96
2023-04-16T11:25:21.538Z,56.99
2023-04-16T11:27:48.590Z,55.84
2023-04-16T11:30:15.632Z,55.99
2023-04-16T11:32:44.575Z,56.48
2023-04-16T11:35:17.264Z,55.79
2023-04-16T11:37:47.077Z,55.46
2023-04-16T11:40:17.277Z,55.08
2023-04-16T11:42:44.688Z,55.23
2023-04-16T11:45:12.724Z,55.48
2023-04-16T11:47:55.523Z,56.23
2023-04-16T11:50:27.762Z,54.84
2023-04-16T11:53:04.818Z,55.00
2023-04-16T11:55:31.632Z,56.01
2023-04-16T11:58:11.284Z,55.32
2023-04-16T12:00:37.977Z,54.56
2023-04-16T12:03:04.923Z,55.11
2023-04-16T12:05:37.382Z,55.30
2023-04-16T12:08:09.705Z,55.34
2023-04-16T12:10:58.509Z,54.76
2023-04-16T12:13:25.311Z,55.09
2023-04-16T12:15:53.866Z,55.00
2023-04-16T12:18:26.355Z,53.80
2023-04-16T12:20:53.305Z,53.99
2023-04-16T12:23:31.495Z,52.69
2023-04-16T12:26:02.967Z,52.88
2023-04-16T12:28:35.167Z,52.41
2023-04-16T12:31:04.037Z,52.90
2023-04-16T12:33:31.455Z,52.84
2023-04-16T12:35:58.317Z,52.77
2023-04-16T12:38:26.434Z,52.75
2023-04-16T12:40:57.101Z,52.13
2023-04-16T12:43:24.379Z,51.94
2023-04-16T12:45:51.252Z,50.68
2023-04-16T12:48:18.995Z,50.95
2023-04-16T12:50:46.405Z,51.16
2023-04-16T12:53:13.205Z,50.66
2023-04-16T12:55:40.044Z,50.82
2023-04-16T12:58:06.993Z,51.33
2023-04-16T13:00:33.731Z,51.61
2023-04-16T13:03:00.633Z,51.64
2023-04-16T13:05:27.597Z,51.18
2023-04-16T13:07:54.343Z,50.74
2023-04-16T13:10:22.249Z,49.56
2023-04-16T13:12:49.260Z,49.81
2023-04-16T13:15:16.113Z,50.45
2023-04-16T13:17:42.877Z,50.62
2023-04-16T13:20:10.343Z,51.25
2023-04-16T13:22:37.210Z,51.21
2023-04-16T13:25:04.149Z,50.99
2023-04-16T13:27:32.284Z,51.24
2023-04-16T13:29:59.142Z,51.06
2023-04-16T13:32:25.910Z,51.54
2023-04-16T13:34:52.719Z,51.73
2023-04-16T13:37:19.387Z,51.49
2023-04-16T13:39:46.167Z,51.61
2023-04-16T13:42:12.874Z,51.23
2023-04-16T13:44:39.667Z,50.91
2023-04-16T13:47:06.599Z,50.73
2023-04-16T13:49:36.007Z,50.40
2023-04-16T13:52:03.338Z,49.59
2023-04-16T13:54:30.030Z,50.17
2023-04-16T13:56:57.054Z,51.01
2023-04-16T13:59:23.749Z,51.35
2023-04-16T14:01:51.253Z,51.11
2023-04-16T14:04:17.996Z,51.08
2023-04-16T14:06:45.056Z,51.81
2023-04-16T14:09:12.022Z,51.85
2023-04-16T14:11:38.958Z,52.88
2023-04-16T14:14:05.721Z,54.10
2023-04-16T14:16:32.595Z,54.08
2023-04-16T14:18:59.322Z,54.74
2023-04-16T14:21:27.301Z,55.32
2023-04-16T14:23:54.103Z,55.36
2023-04-16T14:26:20.950Z,55.24
2023-04-16T14:28:47.936Z,55.88
2023-04-16T14:31:14.727Z,55.34
2023-04-16T14:33:41.419Z,55.75
2023-04-16T14:36:08.571Z,54.86
2023-04-16T14:38:35.365Z,54.71
2023-04-16T14:41:02.098Z,55.05
2023-04-16T14:43:28.784Z,55.23
2023-04-16T14:45:57.358Z,55.67
2023-04-16T14:48:24.125Z,55.28
2023-04-16T14:50:51.117Z,55.59
2023-04-16T14:53:17.932Z,56.07
2023-04-16T14:55:44.710Z,56.14
2023-04-16T14:58:11.487Z,56.26
2023-04-16T15:00:38.311Z,56.76
2023-04-16T15:03:05.944Z,56.89
2023-04-16T15:05:33.032Z,56.76
2023-04-16T15:08:00.762Z,56.84
2023-04-16T15:10:27.727Z,57.08
2023-04-16T15:12:54.507Z,56.37
2023-04-16T15:15:21.374Z,56.45
2023-04-16T15:17:48.400Z,56.53
2023-04-16T15:20:15.478Z,56.60
2023-04-16T15:22:42.315Z,56.94
2023-04-16T15:25:11.226Z,57.26
2023-04-16T15:27:37.996Z,57.54
2023-04-16T15:30:05.329Z,57.77
2023-04-16T15:32:32.156Z,57.89
2023-04-16T15:35:00.038Z,57.22
2023-04-16T15:37:26.858Z,57.54
2023-04-16T15:39:53.646Z,57.15
2023-04-16T15:42:20.474Z,57.43
2023-04-16T15:44:48.183Z,58.07
2023-04-16T15:47:15.010Z,58.46
2023-04-16T15:49:42.574Z,58.53
2023-04-16T15:52:09.839Z,57.99
2023-04-16T15:54:39.612Z,58.30
2023-04-16T15:57:06.687Z,58.24
2023-04-16T15:59:33.462Z,58.54
2023-04-16T16:02:00.431Z,58.99
2023-04-16T16:04:28.332Z,59.13
2023-04-16T16:06:55.881Z,59.51
2023-04-16T16:09:26.485Z,60.04
2023-04-16T16:11:54.580Z,59.87
2023-04-16T16:14:22.651Z,59.78
2023-04-16T16:16:49.517Z,59.85
2023-04-16T16:19:18.741Z,60.47
2023-04-16T16:21:45.650Z,60.93
2023-04-16T16:24:12.454Z,61.35
2023-04-16T16:26:39.158Z,61.04
2023-04-16T16:29:06.039Z,61.67
2023-04-16T16:31:32.820Z,61.69
2023-04-16T16:33:59.605Z,61.87
2023-04-16T16:36:26.747Z,61.97
2023-04-16T16:38:53.589Z,62.55
2023-04-16T16:41:20.745Z,62.67
2023-04-16T16:43:47.487Z,62.80
2023-04-16T16:46:14.155Z,63.07
2023-04-16T16:48:41.098Z,63.53
2023-04-16T16:51:10.867Z,63.53
2023-04-16T16:53:37.715Z,63.80
2023-04-16T16:56:04.612Z,64.06
2023-04-16T16:58:31.744Z,64.28
2023-04-16T17:00:58.951Z,64.91
2023-04-16T17:03:25.916Z,64.80
2023-04-16T17:05:52.793Z,64.84
2023-04-16T17:08:19.536Z,64.92
2023-04-16T17:10:46.268Z,64.98
2023-04-16T17:13:17.676Z,65.11
2023-04-16T17:15:44.491Z,65.42
2023-04-16T17:18:11.208Z,65.56
2023-04-16T17:20:38.161Z,65.81
2023-04-16T17:23:04.865Z,65.97
2023-04-16T17:25:31.683Z,66.02
2023-04-16T17:27:58.455Z,66.19
2023-04-16T17:30:27.499Z,66.28
2023-04-16T17:32:54.286Z,66.83
2023-04-16T17:35:24.955Z,66.93
2023-04-16T17:37:51.927Z,67.15
2023-04-16T17:40:18.797Z,67.30
2023-04-16T17:42:45.886Z,67.48
2023-04-16T17:45:12.791Z,67.59
2023-04-16T17:47:39.622Z,67.87
2023-04-16T17:50:07.418Z,68.21
2023-04-16T17:52:34.115Z,68.36
2023-04-16T17:55:01.882Z,68.58
2023-04-16T17:57:28.782Z,68.68
2023-04-16T17:59:55.655Z,69.06
2023-04-16T18:02:22.923Z,69.57
2023-04-16T18:04:50.030Z,69.80
2023-04-16T18:07:16.956Z,69.63
2023-04-16T18:09:43.719Z,69.78
2023-04-16T18:12:10.550Z,70.12
2023-04-16T18:14:38.972Z,71.01
2023-04-16T18:17:06.788Z,71.06
2023-04-16T18:19:33.662Z,71.31
2023-04-16T18:22:00.812Z,71.59
2023-04-16T18:24:27.605Z,71.99
2023-04-16T18:26:55.301Z,72.54
2023-04-16T18:29:25.073Z,72.33
2023-04-16T18:31:52.389Z,72.30
2023-04-16T18:34:19.480Z,72.56
2023-04-16T18:36:46.366Z,72.53
2023-04-16T18:39:13.156Z,73.02
2023-04-16T18:41:40.907Z,73.67
2023-04-16T18:44:07.802Z,74.18
2023-04-16T18:46:34.525Z,74.05
2023-04-16T18:49:01.634Z,74.29
2023-04-16T18:51:28.501Z,74.51
2023-04-16T18:53:55.407Z,74.98
2023-04-16T18:56:22.086Z,74.83
2023-04-16T18:58:49.475Z,75.10
2023-04-16T19:01:16.862Z,75.06
2023-04-16T19:03:45.634Z,75.33
2023-04-16T19:06:12.467Z,75.56
2023-04-16T19:08:39.199Z,75.86
2023-04-16T19:11:06.093Z,75.75
2023-04-16T19:13:32.876Z,75.37
2023-04-16T19:16:01.239Z,75.89
2023-04-16T19:18:28.106Z,76.10
2023-04-16T19:21:01.605Z,76.32
2023-04-16T19:23:29.513Z,76.25
2023-04-16T19:25:57.200Z,76.54
2023-04-16T19:28:27.476Z,76.53
2023-04-16T19:30:54.559Z,76.64
2023-04-16T19:33:21.364Z,76.58
2023-04-16T19:35:48.211Z,76.80
2023-04-16T19:38:15.069Z,76.66
2023-04-16T19:40:46.859Z,77.02
2023-04-16T19:43:13.851Z,76.97
2023-04-16T19:45:44.910Z,77.23
2023-04-16T19:48:14.701Z,77.42
2023-04-16T19:50:43.028Z,77.32
2023-04-16T19:53:11.168Z,77.37
2023-04-16T19:55:41.859Z,77.28
2023-04-16T19:58:09.063Z,77.49
2023-04-16T20:00:41.165Z,77.82
2023-04-16T20:03:08.250Z,78.56
2023-04-16T20:05:35.762Z,78.73
2023-04-16T20:08:02.455Z,78.98
2023-04-16T20:10:31.749Z,78.81
2023-04-16T20:12:58.629Z,78.68
2023-04-16T20:15:25.701Z,78.81
2023-04-16T20:17:52.745Z,78.92
2023-04-16T20:20:19.607Z,79.23
2023-04-16T20:22:48.520Z,79.51
2023-04-16T20:25:19.249Z,79.48
2023-04-16T20:27:46.377Z,79.44
2023-04-16T20:30:14.371Z,79.66
2023-04-16T20:32:42.529Z,79.53
2023-04-16T20:35:11.644Z,80.06
2023-04-16T20:37:38.796Z,79.92
2023-04-16T20:40:08.928Z,79.93
2023-04-16T20:42:35.851Z,79.80
2023-04-16T20:45:03.726Z,79.55
2023-04-16T20:47:30.677Z,79.91
2023-04-16T20:49:58.345Z,79.75
2023-04-16T20:52:25.095Z,79.93
2023-04-16T20:54:52.493Z,80.06
2023-04-16T20:57:19.404Z,80.00
2023-04-16T20:59:46.191Z,80.05
2023-04-16T21:02:13.249Z,80.13
2023-04-16T21:04:40.278Z,79.82
2023-04-16T21:07:08.328Z,80.02
2023-04-16T21:09:35.026Z,80.19
2023-04-16T21:12:02.130Z,80.30
2023-04-16T21:14:28.837Z,80.52
2023-04-16T21:16:55.778Z,80.60
2023-04-16T21:19:22.695Z,80.59
2023-04-16T21:21:49.546Z,80.33
2023-04-16T21:24:16.351Z,80.55
2023-04-16T21:26:43.078Z,80.50
2023-04-16T21:29:09.908Z,80.20
2023-04-16T21:31:36.894Z,80.23
2023-04-16T21:34:03.645Z,80.07
2023-04-16T21:36:32.270Z,80.47
2023-04-16T21:38:59.095Z,80.54
2023-04-16T21:41:25.968Z,80.57
2023-04-16T21:43:52.660Z,80.60
2023-04-16T21:46:19.533Z,80.47
2023-04-16T21:48:48.541Z,80.31
2023-04-16T21:51:15.927Z,80.51
2023-04-16T21:53:42.853Z,80.56
2023-04-16T21:56:10.568Z,80.67
2023-04-16T21:58:37.366Z,80.68
2023-04-16T22:01:04.069Z,80.74
2023-04-16T22:03:31.247Z,80.34
2023-04-16T22:06:01.766Z,80.83
2023-04-16T22:08:29.855Z,80.84
2023-04-16T22:11:01.852Z,80.93
2023-04-16T22:13:33.227Z,80.92
2023-04-16T22:16:02.927Z,81.35
2023-04-16T22:18:33.248Z,81.33
2023-04-16T22:21:00.012Z,81.44
2023-04-16T22:23:27.944Z,81.48
2023-04-16T22:25:56.138Z,81.40
2023-04-16T22:28:23.708Z,81.07
2023-04-16T22:30:50.624Z,81.19
2023-04-16T22:33:17.589Z,81.28
2023-04-16T22:35:44.471Z,81.02
2023-04-16T22:38:11.489Z,80.99
2023-04-16T22:40:38.265Z,81.34
2023-04-16T22:43:05.477Z,81.72
2023-04-16T22:45:32.322Z,81.87
2023-04-16T22:47:59.287Z,81.53
2023-04-16T22:50:26.052Z,81.20
2023-04-16T22:52:52.793Z,81.28
2023-04-16T22:55:19.616Z,81.06
2023-04-16T22:57:47.684Z,80.78
2023-04-16T23:00:18.055Z,80.76
2023-04-16T23:02:45.569Z,81.11
2023-04-16T23:05:12.515Z,81.11
2023-04-16T23:07:39.328Z,81.40
2023-04-16T23:10:08.745Z,82.28
2023-04-16T23:12:37.625Z,82.47
2023-04-16T23:15:06.604Z,82.94
2023-04-16T23:17:34.102Z,83.30
2023-04-16T23:20:00.880Z,84.00
2023-04-16T23:22:27.744Z,83.87
2023-04-16T23:24:54.638Z,84.07
2023-04-16T23:27:21.393Z,84.17
2023-04-16T23:29:48.021Z,83.50
2023-04-16T23:32:14.720Z,82.93
2023-04-16T23:34:42.337Z,83.13
2023-04-16T23:37:09.081Z,82.87
2023-04-16T23:39:37.199Z,83.12
2023-04-16T23:42:04.188Z,83.03
2023-04-16T23:44:30.871Z,83.00
2023-04-16T23:46:57.618Z,83.03
2023-04-16T23:49:24.666Z,83.40
2023-04-16T23:51:51.502Z,83.25
2023-04-16T23:54:19.395Z,83.67
2023-04-16T23:56:46.817Z,83.73
2023-04-16T23:59:14.076Z,83.64
